Time;durP1;ratioP1;P1;durP2;ratioP2;P2;SDS_P1;SDS_P2;PMS_P1;PMS_P2;Temp;Humidity;BMP_temperature;BMP_pressure;BME280_temperature;BME280_humidity;BME280_pressure;Samples;Min_cycle;Max_cycle;Signal;HPM_P1;HPM_P2
2021/01/28 00:01:36;;;;;;;37.47;15.77;;;;;;;3.57;56.43;99626.72;5086535;28;20074;-76
2021/01/28 00:04:03;;;;;;;31.40;16.20;;;;;;;3.55;56.38;99630.22;5085844;28;20126;-77
2021/01/28 00:06:29;;;;;;;32.88;13.77;;;;;;;3.51;56.04;99634.56;5084900;28;20048;-77
2021/01/28 00:08:56;;;;;;;24.40;11.50;;;;;;;3.46;56.13;99632.97;5084922;28;20132;-76
2021/01/28 00:11:22;;;;;;;26.15;11.65;;;;;;;3.48;55.96;99629.47;5085958;28;20064;-76
2021/01/28 00:13:48;;;;;;;24.42;11.43;;;;;;;3.56;55.89;99624.16;5086319;28;20048;-76
2021/01/28 00:16:14;;;;;;;21.08;10.38;;;;;;;3.61;55.52;99622.31;5085375;28;20480;-75
2021/01/28 00:18:40;;;;;;;17.90;9.07;;;;;;;3.62;55.57;99629.19;5084533;28;20119;-75
2021/01/28 00:21:07;;;;;;;19.25;8.95;;;;;;;3.58;55.53;99624.97;5084096;28;20556;-76
2021/01/28 00:23:33;;;;;;;18.80;9.13;;;;;;;3.51;55.42;99621.63;5083791;28;20131;-77
2021/01/28 00:26:00;;;;;;;21.42;9.25;;;;;;;3.43;55.71;99610.56;5082569;28;20109;-76
2021/01/28 00:28:26;;;;;;;16.30;8.32;;;;;;;3.38;55.49;99614.13;5086183;28;20073;-76
2021/01/28 00:30:53;;;;;;;15.05;7.85;;;;;;;3.32;55.65;99604.72;5080675;28;20132;-76
2021/01/28 00:33:22;;;;;;;17.48;8.85;;;;;;;3.33;55.61;99606.44;5089698;28;20066;-76
2021/01/28 00:35:50;;;;;;;19.70;9.90;;;;;;;3.35;55.71;99605.53;5083503;28;20051;-77
2021/01/28 00:38:20;;;;;;;23.95;10.63;;;;;;;3.33;55.37;99598.66;5087207;28;20570;-76
2021/01/28 00:40:46;;;;;;;22.75;9.23;;;;;;;3.27;55.56;99599.63;5084804;28;20086;-76
2021/01/28 00:43:13;;;;;;;15.85;8.98;;;;;;;3.21;55.48;99597.19;5092940;28;20078;-76
2021/01/28 00:45:39;;;;;;;15.45;8.52;;;;;;;3.16;55.58;99596.41;5091321;28;20068;-75
2021/01/28 00:48:07;;;;;;;19.70;8.15;;;;;;;3.15;55.54;99606.81;5091219;28;20123;-76
2021/01/28 00:50:34;;;;;;;24.10;10.50;;;;;;;3.22;55.45;99601.47;5091313;28;20135;-76
2021/01/28 00:53:00;;;;;;;31.58;14.13;;;;;;;3.25;55.20;99598.81;5091058;28;20048;-76
2021/01/28 00:55:26;;;;;;;37.72;14.73;;;;;;;3.27;55.19;99597.03;5091431;28;20054;-76
2021/01/28 00:57:53;;;;;;;35.63;12.93;;;;;;;3.23;55.14;99603.19;5091199;28;20132;-75
2021/01/28 01:00:27;;;;;;;33.33;13.57;;;;;;;3.17;55.36;99594.69;5090974;28;20146;-75
2021/01/28 01:02:54;;;;;;;29.75;13.30;;;;;;;3.19;55.10;99590.31;5090288;28;20109;-75
2021/01/28 01:05:22;;;;;;;19.92;10.45;;;;;;;3.18;54.83;99593.78;5089632;28;20056;-75
2021/01/28 01:07:50;;;;;;;24.42;11.95;;;;;;;3.20;54.80;99595.47;5090681;28;20040;-75
2021/01/28 01:10:32;;;;;;;20.92;10.75;;;;;;;3.23;54.90;99598.00;5090549;28;20044;-76
2021/01/28 01:12:58;;;;;;;20.73;10.32;;;;;;;3.23;54.71;99594.56;5091593;28;20130;-75
2021/01/28 01:15:25;;;;;;;17.88;9.05;;;;;;;3.24;54.79;99591.06;5091794;28;20399;-76
2021/01/28 01:17:51;;;;;;;16.25;8.50;;;;;;;3.26;54.52;99591.91;5095226;28;20124;-75
2021/01/28 01:20:19;;;;;;;14.20;7.28;;;;;;;3.23;54.42;99586.78;5095347;28;20048;-76
2021/01/28 01:22:45;;;;;;;14.15;7.00;;;;;;;3.22;54.40;99583.34;5095197;28;20137;-76
2021/01/28 01:25:13;;;;;;;15.30;6.85;;;;;;;3.22;54.45;99585.06;5095441;28;20130;-76
2021/01/28 01:27:40;;;;;;;12.25;6.18;;;;;;;3.25;54.34;99585.88;5095319;28;20452;-76
2021/01/28 01:30:07;;;;;;;16.48;9.18;;;;;;;3.26;54.01;99587.56;5095303;28;20048;-76
2021/01/28 01:32:34;;;;;;;12.38;7.38;;;;;;;3.29;53.99;99587.50;5095583;28;20130;-76
2021/01/28 01:35:01;;;;;;;8.98;6.05;;;;;;;3.32;53.84;99579.66;5095980;28;20048;-76
2021/01/28 01:37:27;;;;;;;9.27;5.75;;;;;;;3.30;53.75;99568.50;5095840;28;20047;-76
2021/01/28 01:39:53;;;;;;;9.25;5.18;;;;;;;3.30;53.23;99565.91;5095255;28;20044;-76
2021/01/28 01:42:20;;;;;;;8.35;4.90;;;;;;;3.32;53.05;99569.31;5095436;28;20056;-76
2021/01/28 01:44:47;;;;;;;7.53;4.72;;;;;;;3.38;52.76;99562.31;5095502;28;20043;-76
2021/01/28 01:47:30;;;;;;;27.45;10.77;;;;;;;3.38;52.67;99551.97;5095800;28;20095;-76
2021/01/28 01:49:57;;;;;;;42.60;15.98;;;;;;;3.42;52.53;99553.59;5095814;28;20044;-78
2021/01/28 01:52:28;;;;;;;85.53;28.85;;;;;;;3.41;52.51;99551.88;5095277;28;20197;-77
2021/01/28 01:54:54;;;;;;;51.83;20.30;;;;;;;3.44;52.61;99546.63;5095330;28;20505;-76
2021/01/28 01:57:25;;;;;;;41.38;17.40;;;;;;;3.43;52.02;99544.94;5095475;28;20142;-76
2021/01/28 01:59:54;;;;;;;16.23;7.70;;;;;;;3.48;52.19;99545.69;5093991;28;20509;-77
2021/01/28 02:02:22;;;;;;;11.32;6.32;;;;;;;3.48;52.03;99537.91;5094577;28;20109;-77
2021/01/28 02:04:51;;;;;;;12.23;6.30;;;;;;;3.42;52.07;99525.94;5095107;28;20044;-76
2021/01/28 02:07:21;;;;;;;12.63;6.97;;;;;;;3.36;52.16;99524.34;5095299;28;20131;-76
2021/01/28 02:09:47;;;;;;;13.82;7.57;;;;;;;3.28;51.98;99526.22;5095227;28;20080;-76
2021/01/28 02:12:14;;;;;;;26.88;11.40;;;;;;;3.26;52.37;99516.78;5095374;28;20052;-76
2021/01/28 02:14:40;;;;;;;19.23;9.60;;;;;;;3.16;52.37;99508.34;5095232;28;20055;-76
2021/01/28 02:17:13;;;;;;;18.90;9.48;;;;;;;3.10;52.67;99510.19;5095316;28;20412;-77
2021/01/28 02:19:55;;;;;;;21.00;9.50;;;;;;;3.07;52.35;99513.69;5094929;28;20487;-76
2021/01/28 02:22:31;;;;;;;17.88;9.18;;;;;;;3.08;52.09;99512.81;5094730;28;20062;-75
2021/01/28 02:25:02;;;;;;;17.05;8.05;;;;;;;3.08;52.05;99517.13;5093446;28;20057;-78
2021/01/28 02:27:31;;;;;;;12.87;7.23;;;;;;;3.11;52.23;99504.97;5089687;28;20052;-76
2021/01/28 02:29:57;;;;;;;12.75;6.88;;;;;;;3.13;52.17;99507.56;5094110;28;20044;-75
2021/01/28 02:32:23;;;;;;;12.13;7.70;;;;;;;3.14;52.14;99502.34;5094703;28;20126;-76
2021/01/28 02:34:49;;;;;;;17.30;8.32;;;;;;;3.12;52.07;99498.91;5093346;28;20543;-76
2021/01/28 02:37:18;;;;;;;16.13;9.00;;;;;;;3.08;52.53;99491.25;5094642;28;20050;-76
2021/01/28 02:39:44;;;;;;;24.05;9.90;;;;;;;2.96;52.67;99488.03;5094596;28;20402;-76
2021/01/28 02:42:17;;;;;;;16.30;9.73;;;;;;;2.83;52.90;99478.78;5094243;28;20138;-76
2021/01/28 02:44:44;;;;;;;15.07;8.43;;;;;;;2.72;52.82;99472.97;5094338;28;20044;-75
2021/01/28 02:47:10;;;;;;;12.40;7.35;;;;;;;2.59;53.29;99476.66;5094250;28;20052;-75
2021/01/28 02:49:36;;;;;;;15.43;7.90;;;;;;;2.53;52.97;99471.59;5094652;28;20055;-76
2021/01/28 02:52:02;;;;;;;14.40;7.57;;;;;;;2.48;53.07;99479.44;5094133;28;20055;-76
2021/01/28 02:54:29;;;;;;;21.48;10.38;;;;;;;2.44;53.11;99478.63;5093151;28;20097;-75
2021/01/28 02:56:55;;;;;;;15.60;10.30;;;;;;;2.47;53.34;99477.72;5092472;28;20108;-75
2021/01/28 02:59:21;;;;;;;20.70;9.50;;;;;;;2.49;53.15;99475.09;5093181;28;20050;-75
2021/01/28 03:01:48;;;;;;;21.40;10.23;;;;;;;2.48;53.21;99469.06;5093008;28;20491;-75
2021/01/28 03:04:14;;;;;;;30.95;12.75;;;;;;;2.52;53.01;99475.09;5093254;28;20090;-76
2021/01/28 03:06:40;;;;;;;53.30;19.20;;;;;;;2.58;52.86;99470.63;5093783;28;20134;-75
2021/01/28 03:09:07;;;;;;;41.30;16.55;;;;;;;2.63;52.79;99479.16;5093734;28;20050;-75
2021/01/28 03:11:33;;;;;;;32.22;13.55;;;;;;;2.68;52.67;99474.75;5091613;28;20059;-75
2021/01/28 03:14:00;;;;;;;28.75;16.08;;;;;;;2.74;52.60;99471.22;5093629;28;20052;-75
2021/01/28 03:16:26;;;;;;;35.88;15.30;;;;;;;2.74;52.62;99482.41;5094064;28;20052;-75
2021/01/28 03:18:53;;;;;;;30.52;13.52;;;;;;;2.71;52.58;99472.13;5094336;28;20048;-75
2021/01/28 03:21:19;;;;;;;23.77;10.98;;;;;;;2.70;52.76;99472.97;5093812;28;20048;-75
2021/01/28 03:23:45;;;;;;;25.92;12.70;;;;;;;2.72;52.36;99463.47;5092988;28;20044;-75
2021/01/28 03:26:11;;;;;;;23.83;12.23;;;;;;;2.70;52.61;99465.22;5093833;28;20066;-76
2021/01/28 03:28:38;;;;;;;22.75;11.35;;;;;;;2.67;52.81;99465.28;5093923;28;20048;-75
2021/01/28 03:31:04;;;;;;;19.95;11.30;;;;;;;2.65;52.73;99459.28;5093801;28;20472;-76
2021/01/28 03:33:30;;;;;;;32.33;12.85;;;;;;;2.69;52.67;99455.75;5093593;28;20048;-76
2021/01/28 03:35:57;;;;;;;23.50;13.15;;;;;;;2.71;52.68;99455.75;5093806;28;20475;-75
2021/01/28 03:38:23;;;;;;;22.80;12.55;;;;;;;2.66;52.74;99457.53;5093152;28;20131;-76
2021/01/28 03:40:49;;;;;;;29.35;14.15;;;;;;;2.60;52.87;99447.31;5092055;28;20446;-76
2021/01/28 03:43:15;;;;;;;24.08;11.82;;;;;;;2.51;53.17;99443.19;5093174;28;20052;-74
2021/01/28 03:45:41;;;;;;;22.42;12.02;;;;;;;2.44;53.33;99446.75;5093372;28;20127;-75
2021/01/28 03:48:08;;;;;;;24.63;11.65;;;;;;;2.30;53.62;99446.16;5093104;28;20599;-76
2021/01/28 03:50:36;;;;;;;40.80;18.92;;;;;;;2.14;53.81;99438.66;5093208;28;20544;-78
2021/01/28 03:53:04;;;;;;;29.98;15.18;;;;;;;2.10;54.28;99434.41;5093183;28;20090;-76
2021/01/28 03:55:30;;;;;;;34.28;17.98;;;;;;;2.14;53.63;99436.06;5093125;28;20429;-75
2021/01/28 03:57:56;;;;;;;40.08;21.23;;;;;;;2.23;53.73;99431.59;5093425;28;20126;-76
2021/01/28 04:00:25;;;;;;;34.22;18.25;;;;;;;2.29;53.59;99434.06;5093257;28;20047;-76
2021/01/28 04:02:51;;;;;;;31.50;18.55;;;;;;;2.37;53.30;99425.31;5092788;28;20516;-76
2021/01/28 04:05:18;;;;;;;27.00;15.00;;;;;;;2.47;53.23;99425.97;5093057;28;20080;-76
2021/01/28 04:07:44;;;;;;;29.10;14.55;;;;;;;2.53;53.10;99428.47;5092245;28;20131;-75
2021/01/28 04:10:17;;;;;;;30.23;15.50;;;;;;;2.55;53.10;99424.13;5091601;28;20131;-75
2021/01/28 04:12:44;;;;;;;33.25;16.98;;;;;;;2.59;53.04;99422.31;5092804;28;20418;-75
2021/01/28 04:15:12;;;;;;;33.72;16.17;;;;;;;2.57;53.17;99414.59;5092354;28;20055;-75
2021/01/28 04:17:38;;;;;;;37.80;16.85;;;;;;;2.57;53.32;99414.59;5091391;28;20059;-75
2021/01/28 04:20:06;;;;;;;28.85;13.80;;;;;;;2.61;53.18;99413.66;5092801;28;20120;-76
2021/01/28 04:22:32;;;;;;;31.52;15.10;;;;;;;2.67;53.11;99403.16;5093162;28;20059;-77
2021/01/28 04:24:59;;;;;;;38.53;16.98;;;;;;;2.64;53.17;99392.03;5093173;28;20368;-77
2021/01/28 04:27:26;;;;;;;28.67;14.20;;;;;;;2.55;53.35;99390.50;5092885;28;20131;-76
2021/01/28 04:29:52;;;;;;;30.30;12.82;;;;;;;2.49;53.42;99398.34;5092921;28;20054;-76
2021/01/28 04:32:18;;;;;;;28.48;12.18;;;;;;;2.51;53.54;99390.59;5093374;28;20127;-75
2021/01/28 04:34:45;;;;;;;23.63;11.95;;;;;;;2.56;53.45;99384.44;5093169;28;20070;-75
2021/01/28 04:37:11;;;;;;;17.27;8.95;;;;;;;2.56;53.37;99379.25;5092454;28;20054;-76
2021/01/28 04:39:37;;;;;;;19.63;10.20;;;;;;;2.52;53.54;99382.78;5090871;28;20469;-76
2021/01/28 04:42:05;;;;;;;19.98;10.50;;;;;;;2.45;53.51;99382.03;5091593;28;20051;-76
2021/01/28 04:44:32;;;;;;;22.95;11.13;;;;;;;2.44;53.59;99380.34;5091867;28;20068;-76
2021/01/28 04:46:59;;;;;;;26.23;11.23;;;;;;;2.44;53.58;99374.31;5092182;28;20087;-75
2021/01/28 04:49:27;;;;;;;22.38;10.32;;;;;;;2.45;53.50;99365.66;5092365;28;20040;-75
2021/01/28 04:52:03;;;;;;;19.40;9.23;;;;;;;2.35;53.76;99375.34;5095127;28;20048;-75
2021/01/28 04:54:33;;;;;;;14.57;8.68;;;;;;;2.37;53.71;99362.38;5096416;28;20060;-75
2021/01/28 04:57:06;;;;;;;12.15;7.30;;;;;;;2.35;53.70;99351.22;5096307;28;20048;-76
2021/01/28 04:59:35;;;;;;;14.57;7.20;;;;;;;2.34;53.68;99344.34;5096174;28;20541;-75
2021/01/28 05:02:06;;;;;;;23.45;8.75;;;;;;;2.31;53.67;99342.66;5096735;28;20055;-75
2021/01/28 05:04:38;;;;;;;16.42;8.77;;;;;;;2.31;53.80;99336.66;5096597;28;20044;-75
2021/01/28 05:07:07;;;;;;;19.60;9.95;;;;;;;2.31;53.76;99339.22;5096556;28;20047;-76
2021/01/28 05:09:34;;;;;;;25.23;11.93;;;;;;;2.34;53.81;99336.59;5095626;28;20048;-75
2021/01/28 05:12:00;;;;;;;28.95;12.10;;;;;;;2.34;53.85;99337.44;5096248;28;20485;-75
2021/01/28 05:14:29;;;;;;;27.38;12.48;;;;;;;2.35;53.82;99338.28;5096338;28;20109;-75
2021/01/28 05:16:58;;;;;;;22.83;10.70;;;;;;;2.31;53.99;99326.31;5094198;28;20055;-77
2021/01/28 05:19:46;;;;;;;23.40;11.43;;;;;;;2.21;54.51;99328.19;5095376;28;20036;-76
2021/01/28 05:22:24;;;;;;;25.02;11.80;;;;;;;2.13;54.32;99320.59;5095252;28;20052;-76
2021/01/28 05:24:53;;;;;;;23.63;11.07;;;;;;;2.11;54.26;99316.34;5095627;28;20131;-77
2021/01/28 05:27:29;;;;;;;28.63;12.80;;;;;;;1.98;54.36;99310.53;5095619;28;20519;-78
2021/01/28 05:29:57;;;;;;;27.58;12.90;;;;;;;1.92;54.56;99321.00;5095663;28;20089;-75
2021/01/28 05:32:40;;;;;;;30.70;12.25;;;;;;;1.79;54.75;99311.75;5095948;28;20122;-75
2021/01/28 05:35:23;;;;;;;22.00;10.77;;;;;;;1.66;54.86;99305.94;5095757;28;20459;-77
2021/01/28 05:37:50;;;;;;;82.63;31.38;;;;;;;1.57;55.03;99316.44;5095657;28;20083;-78
2021/01/28 05:40:22;;;;;;;79.97;29.88;;;;;;;1.47;55.27;99310.59;5095817;28;20414;-76
2021/01/28 05:42:51;;;;;;;51.92;22.77;;;;;;;1.42;55.33;99309.78;5095062;28;20135;-76
2021/01/28 05:45:33;;;;;;;35.35;15.10;;;;;;;1.43;55.38;99308.06;5095463;28;20086;-76
2021/01/28 05:48:13;;;;;;;;;;;;;;;1.58;54.91;99302.63;5096110;28;20142;-74
2021/01/28 05:50:39;;;;;;;43.45;18.95;;;;;;;1.39;54.99;99303.81;5095615;28;19920;-75
2021/01/28 05:53:11;;;;;;;43.72;18.33;;;;;;;1.28;55.36;99309.19;5095402;28;20376;-75
2021/01/28 05:55:37;;;;;;;44.60;20.00;;;;;;;1.28;55.17;99304.00;5095598;28;20043;-76
2021/01/28 05:58:10;;;;;;;31.83;16.50;;;;;;;1.20;55.50;99296.38;5095115;28;20487;-76
2021/01/28 06:00:42;;;;;;;28.20;15.30;;;;;;;1.17;55.32;99300.72;5093572;28;20123;-77
2021/01/28 06:03:47;;;;;;;28.20;14.10;;;;;;;1.15;55.58;99294.75;5091769;28;20502;-76
2021/01/28 06:06:40;;;;;;;24.05;12.95;;;;;;;1.18;55.55;99286.94;5094303;28;20048;-77
2021/01/28 06:09:24;;;;;;;28.38;15.80;;;;;;;1.10;55.77;99284.50;5094620;28;20048;-76
2021/01/28 06:12:11;;;;;;;32.75;16.15;;;;;;;1.03;56.14;99274.28;5094721;28;20406;-76
2021/01/28 06:15:07;;;;;;;36.78;16.25;;;;;;;1.02;56.10;99269.97;5094970;28;20096;-76
2021/01/28 06:18:00;;;;;;;33.40;15.48;;;;;;;0.96;56.13;99276.09;5094579;28;20126;-76
2021/01/28 06:20:44;;;;;;;30.73;13.82;;;;;;;0.84;56.10;99279.72;5093027;28;20056;-76
2021/01/28 06:23:29;;;;;;;29.95;12.90;;;;;;;0.73;56.20;99284.19;5077343;28;20059;-75
2021/01/28 06:26:07;;;;;;;26.80;12.93;;;;;;;0.64;56.47;99274.00;5082905;28;20435;-77
2021/01/28 06:28:47;;;;;;;25.83;11.13;;;;;;;0.57;56.38;99262.03;5093063;28;20046;-76
2021/01/28 06:31:26;;;;;;;29.67;13.48;;;;;;;0.51;56.57;99251.81;5092877;28;20608;-75
2021/01/28 06:34:11;;;;;;;30.10;13.75;;;;;;;0.48;56.66;99246.72;5082161;28;20041;-74
2021/01/28 06:36:56;;;;;;;36.20;13.07;;;;;;;0.44;56.54;99242.47;5074057;28;20052;-74
2021/01/28 06:39:28;;;;;;;25.92;12.95;;;;;;;0.43;56.60;99239.03;5074419;28;20049;-76
2021/01/28 06:42:01;;;;;;;32.05;13.73;;;;;;;0.41;56.67;99235.59;5073707;28;20507;-75
2021/01/28 06:44:31;;;;;;;32.30;13.55;;;;;;;0.42;56.45;99229.59;5075441;28;20131;-75
2021/01/28 06:47:02;;;;;;;40.00;14.90;;;;;;;0.42;56.26;99227.03;5094369;28;20079;-75
2021/01/28 06:49:44;;;;;;;31.75;13.95;;;;;;;0.44;56.42;99222.69;5092456;28;20083;-75
2021/01/28 06:52:43;;;;;;;37.47;14.20;;;;;;;0.46;56.49;99223.53;5092261;28;20052;-74
2021/01/28 06:55:20;;;;;;;39.03;15.23;;;;;;;0.47;56.32;99221.81;5092219;28;20495;-74
2021/01/28 06:57:52;;;;;;;27.33;13.85;;;;;;;0.49;56.46;99215.75;5092897;28;20071;-74
2021/01/28 07:00:35;;;;;;;32.95;13.52;;;;;;;0.59;56.27;99208.72;5093759;28;20094;-75
2021/01/28 07:03:07;;;;;;;30.98;12.43;;;;;;;0.81;56.00;99204.94;5091943;28;20056;-74
2021/01/28 07:05:45;;;;;;;24.92;10.50;;;;;;;1.01;55.69;99196.88;5093372;28;20043;-75
2021/01/28 07:08:25;;;;;;;27.92;13.40;;;;;;;1.42;55.11;99193.56;5093426;28;20059;-74
2021/01/28 07:10:51;;;;;;;22.85;10.75;;;;;;;2.22;53.81;99192.00;5093913;28;20064;-75
2021/01/28 07:13:20;;;;;;;26.70;10.85;;;;;;;2.96;53.21;99173.91;5093360;28;20484;-75
2021/01/28 07:15:50;;;;;;;35.88;14.02;;;;;;;3.27;52.35;99174.81;5094100;28;20074;-75
2021/01/28 07:18:22;;;;;;;32.70;13.93;;;;;;;3.22;52.30;99168.91;5093692;28;20052;-75
2021/01/28 07:20:59;;;;;;;27.83;13.25;;;;;;;3.28;52.31;99173.09;5093916;28;20052;-74
2021/01/28 07:23:28;;;;;;;32.60;14.02;;;;;;;3.29;52.08;99154.91;5094754;28;20076;-74
2021/01/28 07:26:07;;;;;;;31.60;13.98;;;;;;;3.29;52.21;99154.06;5095668;28;20505;-74
2021/01/28 07:28:34;;;;;;;27.60;13.88;;;;;;;3.35;51.71;99144.41;5093500;28;20052;-74
2021/01/28 07:31:24;;;;;;;30.98;15.25;;;;;;;3.51;51.58;99141.38;5093021;28;20082;-74
2021/01/28 07:34:05;;;;;;;37.90;14.30;;;;;;;3.57;51.52;99131.72;5092477;28;20051;-75
2021/01/28 07:36:44;;;;;;;34.72;16.63;;;;;;;3.51;51.50;99124.09;5091657;28;20135;-74
2021/01/28 07:39:38;;;;;;;57.25;24.73;;;;;;;3.69;51.19;99122.72;5091501;28;20044;-76
2021/01/28 07:42:08;;;;;;;46.83;22.80;;;;;;;4.04;50.54;99119.13;5089460;28;20064;-75
2021/01/28 07:44:44;;;;;;;30.40;16.23;;;;;;;4.57;49.62;99109.66;5090040;28;20173;-74
2021/01/28 07:47:16;;;;;;;40.85;20.50;;;;;;;5.70;47.70;99108.38;5085529;28;20251;-75
2021/01/28 07:50:07;;;;;;;49.22;22.75;;;;;;;7.00;45.96;99104.13;5078511;28;22304;-75
2021/01/28 07:52:39;;;;;;;40.92;19.48;;;;;;;8.53;44.00;99107.69;5088228;28;20113;-76
2021/01/28 07:55:37;;;;;;;49.53;23.58;;;;;;;9.51;42.55;99113.25;5090506;28;20072;-74
2021/01/28 07:58:04;;;;;;;54.83;25.08;;;;;;;10.20;41.13;99116.50;5074907;28;20071;-78
2021/01/28 08:00:39;;;;;;;49.78;24.02;;;;;;;10.39;40.76;99119.81;5091124;28;20043;-80
2021/01/28 08:03:16;;;;;;;35.38;15.43;;;;;;;9.77;41.53;99112.72;5091439;28;20134;-83
2021/01/28 08:05:51;;;;;;;39.15;19.30;;;;;;;9.18;42.23;99114.06;5090859;28;20056;-80
2021/01/28 08:08:20;;;;;;;38.63;18.63;;;;;;;8.95;42.26;99116.97;5090643;28;20040;-80
2021/01/28 08:10:48;;;;;;;31.23;16.90;;;;;;;8.37;43.02;99115.44;5090620;28;20221;-82
2021/01/28 08:13:24;;;;;;;44.55;21.65;;;;;;;8.04;43.19;99120.41;5089052;28;20048;-82
2021/01/28 08:15:56;;;;;;;36.70;17.77;;;;;;;7.53;43.61;99114.03;5084695;28;20080;-81
2021/01/28 08:18:29;;;;;;;34.03;17.58;;;;;;;6.93;44.41;99113.13;5087632;28;20048;-81
2021/01/28 08:21:06;;;;;;;31.98;15.43;;;;;;;6.48;44.92;99120.19;5090062;28;20078;-82
2021/01/28 08:23:34;;;;;;;32.28;15.77;;;;;;;6.43;44.95;99113.41;5091139;28;20075;-83
2021/01/28 08:26:04;;;;;;;41.42;19.65;;;;;;;6.47;44.59;99110.69;5084512;28;20037;-82
2021/01/28 08:28:33;;;;;;;38.80;19.40;;;;;;;6.60;44.31;99109.28;5088282;28;20107;-79
2021/01/28 08:31:15;;;;;;;39.35;20.02;;;;;;;6.62;43.78;99104.84;5083951;28;20433;-79
2021/01/28 08:33:44;;;;;;;53.70;21.27;;;;;;;6.53;43.81;99100.03;5084163;28;20055;-78
2021/01/28 08:36:22;;;;;;;42.30;20.50;;;;;;;6.41;43.77;99097.00;5087109;28;20514;-79
2021/01/28 08:38:49;;;;;;;33.53;15.43;;;;;;;6.45;43.85;99086.44;5087158;28;20839;-81
2021/01/28 08:41:20;;;;;;;32.90;15.52;;;;;;;6.42;43.78;99087.44;5085578;28;20405;-75
2021/01/28 08:43:47;;;;;;;36.92;16.42;;;;;;;6.28;43.84;99088.00;5087779;28;20055;-76
2021/01/28 08:46:18;;;;;;;42.40;17.92;;;;;;;6.28;43.74;99085.41;5084302;28;20135;-75
2021/01/28 08:48:45;;;;;;;32.85;16.15;;;;;;;6.39;43.71;99085.78;5081089;28;20056;-76
2021/01/28 08:51:18;;;;;;;31.08;15.60;;;;;;;6.48;43.27;99078.53;5084802;28;20131;-81
2021/01/28 08:53:57;;;;;;;34.10;13.90;;;;;;;6.42;43.29;99067.44;5082545;28;20487;-79
2021/01/28 08:56:27;;;;;;;35.55;16.35;;;;;;;6.43;43.31;99063.94;5080017;28;20132;-79
2021/01/28 08:58:54;;;;;;;31.77;16.65;;;;;;;6.49;43.19;99054.22;5086902;28;20560;-77
2021/01/28 09:01:21;;;;;;;29.70;15.98;;;;;;;6.40;42.97;99048.44;5083278;28;20092;-80
2021/01/28 09:04:00;;;;;;;42.22;18.00;;;;;;;6.40;43.21;99047.59;5083689;28;20052;-80
2021/01/28 09:06:26;;;;;;;28.83;14.98;;;;;;;6.29;43.02;99029.81;5077790;28;20044;-81
2021/01/28 09:09:04;;;;;;;31.67;16.45;;;;;;;6.35;43.09;99029.56;5087056;28;20047;-79
2021/01/28 09:11:31;;;;;;;25.10;14.00;;;;;;;6.41;42.55;99026.72;5082240;28;20517;-80
2021/01/28 09:14:29;;;;;;;26.25;14.13;;;;;;;6.29;42.99;99027.22;5082014;28;20090;-80
2021/01/28 09:17:00;;;;;;;25.55;12.95;;;;;;;6.39;42.54;99023.31;5079154;28;20446;-82
2021/01/28 09:19:28;;;;;;;24.92;13.88;;;;;;;6.45;42.44;99026.56;5089687;28;20048;-74
2021/01/28 09:21:58;;;;;;;30.58;15.90;;;;;;;6.46;42.47;99025.69;5079431;28;20054;-74
2021/01/28 09:24:43;;;;;;;34.67;17.25;;;;;;;6.39;42.57;99018.13;5077787;28;20041;-73
2021/01/28 09:27:29;;;;;;;39.33;17.65;;;;;;;6.60;42.62;99010.31;5084977;28;20471;-73
2021/01/28 09:29:56;;;;;;;31.02;16.60;;;;;;;6.60;42.46;99010.31;5087947;28;20118;-74
2021/01/28 09:32:32;;;;;;;29.38;15.80;;;;;;;6.50;42.45;98994.25;5088586;28;20162;-75
2021/01/28 09:35:14;;;;;;;32.17;16.77;;;;;;;6.43;42.59;98988.44;5086834;28;20044;-75
2021/01/28 09:37:43;;;;;;;35.17;16.27;;;;;;;6.27;42.84;98987.41;5087978;28;20068;-76
2021/01/28 09:40:22;;;;;;;40.33;19.55;;;;;;;6.07;43.44;98982.16;5092489;28;20063;-75
2021/01/28 09:42:49;;;;;;;31.65;16.35;;;;;;;5.95;43.78;98975.69;5089387;28;20101;-74
2021/01/28 09:45:26;;;;;;;34.53;16.50;;;;;;;5.82;43.78;98980.47;5084288;28;20070;-77
2021/01/28 09:47:54;;;;;;;35.22;16.88;;;;;;;5.87;43.81;98979.47;5090137;28;20093;-75
2021/01/28 09:50:20;;;;;;;41.25;17.67;;;;;;;5.76;44.30;98977.28;5091852;28;20052;-73
2021/01/28 09:52:48;;;;;;;31.95;17.48;;;;;;;5.57;44.56;98981.47;5087649;28;20135;-74
2021/01/28 09:55:18;;;;;;;32.90;14.95;;;;;;;5.57;44.42;98973.69;5088192;28;20040;-75
2021/01/28 09:57:44;;;;;;;29.10;15.55;;;;;;;5.62;44.39;98966.53;5092805;28;20059;-76
2021/01/28 10:00:14;;;;;;;28.58;14.82;;;;;;;5.58;44.20;98957.19;5086809;28;20044;-75
2021/01/28 10:02:44;;;;;;;34.85;15.65;;;;;;;5.51;44.46;98949.63;5092671;28;20046;-75
2021/01/28 10:05:12;;;;;;;27.80;13.80;;;;;;;5.48;44.34;98944.56;5085640;28;20139;-75
2021/01/28 10:07:39;;;;;;;29.33;14.50;;;;;;;5.43;44.39;98940.44;5088269;28;20044;-75
2021/01/28 10:10:06;;;;;;;29.63;15.43;;;;;;;5.49;44.57;98940.19;5084313;28;20498;-76
2021/01/28 10:12:34;;;;;;;25.90;13.77;;;;;;;5.43;44.39;98935.25;5086857;28;20131;-74
2021/01/28 10:15:04;;;;;;;26.15;13.70;;;;;;;5.43;44.44;98930.03;5088700;28;20509;-76
2021/01/28 10:17:31;;;;;;;25.30;13.27;;;;;;;5.47;44.57;98919.47;5083793;28;20368;-77
2021/01/28 10:19:57;;;;;;;30.80;15.70;;;;;;;5.40;44.62;98925.78;5080379;28;20040;-77
2021/01/28 10:22:24;;;;;;;35.38;17.33;;;;;;;5.34;44.51;98910.44;5088079;28;20043;-78
2021/01/28 10:24:50;;;;;;;33.55;18.27;;;;;;;5.29;44.49;98914.13;5082574;28;20052;-80
2021/01/28 10:27:17;;;;;;;48.55;26.67;;;;;;;5.41;44.48;98911.03;5088181;28;20048;-79
2021/01/28 10:29:44;;;;;;;38.00;20.73;;;;;;;5.55;43.95;98907.91;5088529;28;20055;-77
2021/01/28 10:32:13;;;;;;;47.22;24.33;;;;;;;5.59;44.15;98905.13;5085497;28;20083;-75
2021/01/28 10:34:41;;;;;;;60.15;29.30;;;;;;;5.61;44.17;98900.72;5091777;28;20051;-74
2021/01/28 10:37:09;;;;;;;31.02;16.50;;;;;;;5.50;44.44;98900.31;5088138;28;20463;-73
2021/01/28 10:39:35;;;;;;;50.45;24.73;;;;;;;5.49;44.54;98896.84;5090034;28;20047;-73
2021/01/28 10:42:01;;;;;;;48.15;21.38;;;;;;;5.49;44.61;98901.22;5090124;28;20040;-73
2021/01/28 10:44:28;;;;;;;48.78;25.23;;;;;;;5.47;45.08;98900.44;5089036;28;20036;-74
2021/01/28 10:46:55;;;;;;;32.83;18.23;;;;;;;5.38;45.47;98895.56;5090521;28;20433;-74
2021/01/28 10:49:21;;;;;;;43.03;19.38;;;;;;;5.02;46.55;98901.28;5084319;28;20041;-73
2021/01/28 10:51:48;;;;;;;42.50;21.95;;;;;;;4.86;47.34;98887.16;5091466;28;20127;-73
2021/01/28 10:54:15;;;;;;;46.47;23.33;;;;;;;4.87;47.65;98878.47;5082531;28;20130;-73
2021/01/28 10:56:42;;;;;;;46.20;23.55;;;;;;;4.89;48.33;98871.47;5088975;28;20044;-72
2021/01/28 10:59:08;;;;;;;39.10;20.95;;;;;;;4.70;48.62;98871.28;5082539;28;20139;-73
2021/01/28 11:01:34;;;;;;;48.40;22.20;;;;;;;4.55;49.06;98851.91;5079359;28;20503;-76
2021/01/28 11:04:00;;;;;;;54.15;24.90;;;;;;;4.53;49.54;98848.53;5087421;28;20036;-75
2021/01/28 11:06:26;;;;;;;46.65;23.63;;;;;;;4.71;49.36;98846.19;5082477;28;20720;-77
2021/01/28 11:08:53;;;;;;;41.08;19.77;;;;;;;4.76;49.28;98842.50;5087357;28;20515;-77
2021/01/28 11:11:19;;;;;;;37.08;18.40;;;;;;;4.81;48.95;98826.78;5081470;28;20066;-76
2021/01/28 11:13:47;;;;;;;36.95;19.02;;;;;;;4.86;49.06;98832.63;5086586;28;20049;-77
2021/01/28 11:16:13;;;;;;;35.08;19.75;;;;;;;4.93;49.13;98828.88;5085670;28;20066;-75
2021/01/28 11:18:39;;;;;;;30.98;16.10;;;;;;;4.93;49.15;98821.09;5085590;28;20040;-74
2021/01/28 11:21:05;;;;;;;32.20;19.02;;;;;;;4.98;49.25;98813.97;5086911;28;20870;-75
2021/01/28 11:23:31;;;;;;;29.70;16.80;;;;;;;5.01;49.16;98813.03;5088942;28;20112;-74
2021/01/28 11:25:59;;;;;;;33.80;18.38;;;;;;;5.05;49.13;98797.25;5087172;28;20046;-75
2021/01/28 11:28:25;;;;;;;35.10;17.73;;;;;;;5.05;49.04;98799.84;5086108;28;20044;-75
2021/01/28 11:30:51;;;;;;;39.05;18.70;;;;;;;4.90;49.46;98801.28;5089649;28;20408;-73
2021/01/28 11:33:17;;;;;;;40.53;19.73;;;;;;;4.86;49.40;98789.34;5084149;28;20051;-74
2021/01/28 11:35:43;;;;;;;32.33;16.73;;;;;;;4.77;49.53;98783.63;5085068;28;20076;-74
2021/01/28 11:38:09;;;;;;;39.92;20.63;;;;;;;4.74;49.73;98782.00;5089760;28;20048;-73
2021/01/28 11:40:37;;;;;;;36.15;17.15;;;;;;;4.64;49.85;98759.91;5085331;28;20044;-74
2021/01/28 11:43:04;;;;;;;35.75;18.17;;;;;;;4.54;49.96;98761.97;5086246;28;20320;-76